Dera Bugti Weather



Dera Bugti's Current Weather

Temprature 15.03o clear sky

clear sky

Rain: 0 %

Min Temprature15.03o
Max Temprature15.03o
Humidity26
Wind Speed4.12 m/h
Sun Rise07:16:08
Sun Set17:53:58
Current Time: 23-Jan-2021 18:45:27
Lat/Lon: 29.0307, 69.151




Dera Bugti's Geo Location



Dera Bugti's Weather Forecast

Time Overall Temp Min Temp Max Temp Humidity Wind Speed Rain
23-Jan-2021 (Sat)
20:00:00 clear sky 16.340 14.310 16.340 24 3.39 m/h 0 %
23:00:00 few clouds 14.380 13.300 14.380 27 5.07 m/h 0 %
24-Jan-2021 (Sun)
02:00:00 clear sky 12.180 11.760 12.180 31 3.37 m/h 0 %
05:00:00 clear sky 9.330 9.260 9.330 37 1.91 m/h 0 %
08:00:00 clear sky 8.990 8.990 8.990 38 1.38 m/h 0 %
11:00:00 clear sky 15.770 15.770 15.770 23 1.24 m/h 0 %
14:00:00 clear sky 18.400 18.400 18.400 19 1.84 m/h 0 %
17:00:00 clear sky 18.120 18.120 18.120 20 2.44 m/h 0 %
20:00:00 clear sky 13.430 13.430 13.430 29 2.01 m/h 0 %
23:00:00 clear sky 11.120 11.120 11.120 35 1.13 m/h 0 %
25-Jan-2021 (Mon)
02:00:00 clear sky 9.900 9.900 9.900 36 1.21 m/h 0 %
05:00:00 clear sky 8.470 8.470 8.470 39 0.77 m/h 0 %
08:00:00 clear sky 9.040 9.040 9.040 38 0.33 m/h 0 %
11:00:00 clear sky 16.610 16.610 16.610 22 1.36 m/h 0 %
14:00:00 clear sky 19.010 19.010 19.010 19 2.99 m/h 0 %
17:00:00 clear sky 18.350 18.350 18.350 21 3.06 m/h 0 %
20:00:00 clear sky 13.700 13.700 13.700 30 2.37 m/h 0 %
23:00:00 clear sky 11.740 11.740 11.740 33 1.81 m/h 0 %
26-Jan-2021 (Tue)
02:00:00 clear sky 10.240 10.240 10.240 35 1.32 m/h 0 %
05:00:00 clear sky 8.700 8.700 8.700 38 0.84 m/h 0 %
08:00:00 clear sky 9.350 9.350 9.350 37 1.03 m/h 0 %
11:00:00 clear sky 17.220 17.220 17.220 21 0.17 m/h 0 %
14:00:00 clear sky 19.380 19.380 19.380 18 0.95 m/h 0 %
17:00:00 clear sky 19.250 19.250 19.250 19 1.62 m/h 0 %
20:00:00 clear sky 13.500 13.500 13.500 30 0.85 m/h 0 %
23:00:00 clear sky 12.010 12.010 12.010 32 1.03 m/h 0 %
27-Jan-2021 (Wed)
02:00:00 clear sky 10.610 10.610 10.610 34 1.16 m/h 0 %
05:00:00 clear sky 9.420 9.420 9.420 36 1.07 m/h 0 %
08:00:00 clear sky 10.020 10.020 10.020 36 1.18 m/h 0 %
11:00:00 clear sky 17.830 17.830 17.830 21 1.18 m/h 0 %
14:00:00 clear sky 19.560 19.560 19.560 18 0.95 m/h 0 %
17:00:00 clear sky 19.410 19.410 19.410 19 1.6 m/h 0 %
20:00:00 clear sky 13.820 13.820 13.820 29 0.9 m/h 0 %
23:00:00 clear sky 12.190 12.190 12.190 32 1.19 m/h 0 %
28-Jan-2021 (Thu)
02:00:00 clear sky 11.260 11.260 11.260 33 1.55 m/h 0 %
05:00:00 clear sky 9.440 9.440 9.440 37 0.8 m/h 0 %
08:00:00 clear sky 9.980 9.980 9.980 36 0.62 m/h 0 %
11:00:00 clear sky 17.910 17.910 17.910 20 0.64 m/h 0 %
14:00:00 clear sky 20.240 20.240 20.240 18 2.38 m/h 0 %
17:00:00 clear sky 19.770 19.770 19.770 19 2.5 m/h 0 %

Famous Cities (60)